createdAt,value
2022-10-04T00:01:14.092Z,0.73
2022-10-04T00:06:24.196Z,0.73
2022-10-04T00:11:31.343Z,0.63
2022-10-04T00:16:37.645Z,0.60
2022-10-04T00:22:13.952Z,1.30
2022-10-04T00:27:28.083Z,0.85
2022-10-04T00:32:42.005Z,0.95
2022-10-04T00:38:14.119Z,0.63
2022-10-04T00:43:33.027Z,1.00
2022-10-04T00:48:53.010Z,1.02
2022-10-04T00:54:10.301Z,0.60
2022-10-04T00:59:40.382Z,1.05
2022-10-04T01:04:59.957Z,0.68
2022-10-04T01:15:22.325Z,0.80
2022-10-04T01:20:37.433Z,0.75
2022-10-04T01:25:52.414Z,0.80
2022-10-04T01:30:55.654Z,0.80
2022-10-04T01:35:57.988Z,0.80
2022-10-04T01:41:03.895Z,0.95
2022-10-04T01:46:21.627Z,1.10
2022-10-04T01:51:33.580Z,0.88
2022-10-04T01:56:44.361Z,0.93
2022-10-04T02:01:56.422Z,0.82
2022-10-04T02:07:01.384Z,0.93
2022-10-04T02:12:03.779Z,1.02
2022-10-04T02:17:11.240Z,0.88
2022-10-04T02:22:13.608Z,0.90
2022-10-04T02:27:16.630Z,1.10
2022-10-04T02:32:37.505Z,0.93
2022-10-04T02:37:40.559Z,0.93
2022-10-04T02:43:03.878Z,0.82
2022-10-04T02:48:21.518Z,0.80
2022-10-04T02:53:44.553Z,0.77
2022-10-04T02:58:47.493Z,0.63
2022-10-04T03:03:49.988Z,0.77
2022-10-04T03:08:59.690Z,0.98
2022-10-04T03:14:05.711Z,0.80
2022-10-04T03:19:09.241Z,0.50
2022-10-04T03:24:18.673Z,0.50
2022-10-04T03:34:31.931Z,0.63
2022-10-04T03:39:39.610Z,0.75
2022-10-04T03:44:43.419Z,0.75
2022-10-04T03:49:50.807Z,0.70
2022-10-04T03:54:56.132Z,0.75
2022-10-04T03:59:59.699Z,0.63
2022-10-04T04:05:15.508Z,0.68
2022-10-04T04:10:29.990Z,0.60
2022-10-04T04:15:34.803Z,0.40
2022-10-04T04:20:41.610Z,0.70
2022-10-04T04:25:48.151Z,0.85
2022-10-04T04:30:54.310Z,0.77
2022-10-04T04:36:03.144Z,0.80
2022-10-04T04:41:10.596Z,0.52
2022-10-04T04:46:27.013Z,0.63
2022-10-04T04:51:32.811Z,1.00
2022-10-04T04:56:36.172Z,1.10
2022-10-04T05:01:49.337Z,1.27
2022-10-04T05:07:03.894Z,1.00
2022-10-04T05:12:20.111Z,0.50
2022-10-04T05:17:28.423Z,0.80
2022-10-04T05:22:32.862Z,0.50
2022-10-04T05:27:40.786Z,0.60
2022-10-04T05:33:18.494Z,0.90
2022-10-04T05:38:38.481Z,0.60
2022-10-04T05:43:50.508Z,0.60
2022-10-04T05:48:59.392Z,0.90
2022-10-04T05:54:03.783Z,1.08
2022-10-04T05:59:21.161Z,0.85
2022-10-04T06:04:32.655Z,0.55
2022-10-04T06:09:53.186Z,1.00
2022-10-04T06:15:10.378Z,0.82
2022-10-04T06:20:44.116Z,0.70
2022-10-04T06:26:02.067Z,0.85
2022-10-04T06:31:22.810Z,0.80
2022-10-04T06:37:17.100Z,0.57
2022-10-04T06:42:37.492Z,1.00
2022-10-04T06:48:11.855Z,1.35
2022-10-04T06:53:37.807Z,0.63
2022-10-04T06:58:59.139Z,1.38
2022-10-04T07:04:26.205Z,0.77
2022-10-04T07:09:29.202Z,0.80
2022-10-04T07:14:39.372Z,0.57
2022-10-04T07:19:48.659Z,0.55
2022-10-04T07:25:06.342Z,0.57
2022-10-04T07:30:17.099Z,0.50
2022-10-04T07:35:43.246Z,0.90
2022-10-04T07:41:10.254Z,0.70
2022-10-04T07:46:38.124Z,1.08
2022-10-04T07:51:46.309Z,0.80
2022-10-04T07:57:00.491Z,0.87
2022-10-04T08:02:27.712Z,0.50
2022-10-04T08:07:49.965Z,0.70
2022-10-04T08:13:18.193Z,0.50
2022-10-04T08:18:53.965Z,0.47
2022-10-04T08:24:28.634Z,0.50
2022-10-04T08:29:43.310Z,0.68
2022-10-04T08:35:02.275Z,0.70
2022-10-04T08:40:36.134Z,0.82
2022-10-04T08:46:01.341Z,0.95
2022-10-04T08:51:21.543Z,0.70
2022-10-04T08:56:51.199Z,0.60
2022-10-04T09:02:30.802Z,0.60
2022-10-04T09:08:01.006Z,0.95
2022-10-04T09:13:12.760Z,0.70
2022-10-04T09:18:46.780Z,0.52
2022-10-04T09:24:17.939Z,0.50
2022-10-04T09:29:34.092Z,0.68
2022-10-04T09:34:42.838Z,0.85
2022-10-04T09:39:51.246Z,0.68
2022-10-04T09:45:15.195Z,0.82
2022-10-04T09:50:36.001Z,0.63
2022-10-04T09:56:08.997Z,0.55
2022-10-04T10:01:36.284Z,0.95
2022-10-04T10:06:47.367Z,0.73
2022-10-04T10:12:40.203Z,0.60
2022-10-04T10:18:07.865Z,0.80
2022-10-04T10:23:25.302Z,0.80
2022-10-04T10:28:54.758Z,1.23
2022-10-04T10:34:28.306Z,0.50
2022-10-04T10:39:56.954Z,0.68
2022-10-04T10:45:09.697Z,0.70
2022-10-04T10:51:00.839Z,0.70
2022-10-04T10:56:27.993Z,0.70
2022-10-04T11:01:57.638Z,0.77
2022-10-04T11:07:32.381Z,0.68
2022-10-04T11:12:43.674Z,0.68
2022-10-04T11:17:48.878Z,0.68
2022-10-04T11:23:29.899Z,0.63
2022-10-04T11:28:58.018Z,2.60
2022-10-04T11:34:18.811Z,1.00
2022-10-04T11:39:23.649Z,0.68
2022-10-04T11:44:37.915Z,0.50
2022-10-04T11:49:45.732Z,0.73
2022-10-04T11:54:48.425Z,0.85
2022-10-04T12:00:16.634Z,0.90
2022-10-04T12:05:50.154Z,0.80
2022-10-04T12:11:16.532Z,0.65
2022-10-04T12:22:28.123Z,0.60
2022-10-04T12:28:00.237Z,0.68
2022-10-04T12:33:22.684Z,0.88
2022-10-04T12:38:45.965Z,0.80
2022-10-04T12:44:10.596Z,1.05
2022-10-04T12:49:50.193Z,1.55
2022-10-04T13:00:18.708Z,0.43
2022-10-04T13:05:46.954Z,0.80
2022-10-04T13:11:01.274Z,0.70
2022-10-04T13:22:06.860Z,0.60
2022-10-04T13:27:18.227Z,0.93
2022-10-04T13:32:28.282Z,0.60
2022-10-04T13:37:43.147Z,0.88
2022-10-04T13:43:20.667Z,0.80
2022-10-04T13:48:45.299Z,0.60
2022-10-04T13:54:15.813Z,0.63
2022-10-04T13:59:30.835Z,0.75
2022-10-04T14:04:47.774Z,0.80
2022-10-04T14:10:12.468Z,0.85
2022-10-04T14:15:42.353Z,0.60
2022-10-04T14:20:56.839Z,0.75
2022-10-04T14:26:19.732Z,0.80
2022-10-04T14:32:14.131Z,0.70
2022-10-04T14:37:43.812Z,0.68
2022-10-04T14:43:10.707Z,0.80
2022-10-04T14:48:20.149Z,0.70
2022-10-04T14:53:37.627Z,0.60
2022-10-04T14:59:15.388Z,0.80
2022-10-04T15:04:35.308Z,0.93
2022-10-04T15:09:50.874Z,1.00
2022-10-04T15:15:05.798Z,0.70
2022-10-04T15:20:25.638Z,1.25
2022-10-04T15:26:09.472Z,0.70
2022-10-04T15:31:11.818Z,0.93
2022-10-04T15:36:39.967Z,2.25
2022-10-04T15:42:04.347Z,1.00
2022-10-04T15:47:34.805Z,1.00
2022-10-04T15:53:05.930Z,0.77
2022-10-04T15:58:50.665Z,1.30
2022-10-04T16:04:25.762Z,0.65
2022-10-04T16:09:38.033Z,0.88
2022-10-04T16:15:19.827Z,1.20
2022-10-04T16:20:37.274Z,0.75
2022-10-04T16:25:39.865Z,0.85
2022-10-04T16:31:06.889Z,1.13
2022-10-04T16:36:19.007Z,0.88
2022-10-04T16:41:36.981Z,1.17
2022-10-04T16:46:46.753Z,1.27
2022-10-04T16:52:13.771Z,2.10
2022-10-04T16:57:22.845Z,1.95
2022-10-04T17:02:44.021Z,1.60
2022-10-04T17:08:05.167Z,2.58
2022-10-04T17:13:13.460Z,2.28
2022-10-04T17:18:51.500Z,2.47
2022-10-04T17:24:11.909Z,1.90
2022-10-04T17:29:27.254Z,1.50
2022-10-04T17:35:01.926Z,1.85
2022-10-04T17:40:13.595Z,1.40
2022-10-04T17:45:18.645Z,1.20
2022-10-04T17:51:01.060Z,1.50
2022-10-04T17:56:06.457Z,1.05
2022-10-04T18:01:14.779Z,0.93
2022-10-04T18:06:43.413Z,1.43
2022-10-04T18:12:15.447Z,1.00
2022-10-04T18:17:30.319Z,1.02
2022-10-04T18:22:45.951Z,5.72
2022-10-04T18:27:52.894Z,2.88
2022-10-04T18:32:57.802Z,2.22
2022-10-04T18:38:00.262Z,1.83
2022-10-04T18:43:02.680Z,1.88
2022-10-04T18:48:19.091Z,1.77
2022-10-04T18:54:00.559Z,1.70
2022-10-04T18:59:35.417Z,1.20
2022-10-04T19:04:50.115Z,1.23
2022-10-04T19:10:07.463Z,1.35
2022-10-04T19:15:24.867Z,1.88
2022-10-04T19:20:47.045Z,2.70
2022-10-04T19:32:11.658Z,2.20
2022-10-04T19:37:32.021Z,2.15
2022-10-04T19:42:37.330Z,2.47
2022-10-04T19:47:58.824Z,2.15
2022-10-04T19:53:15.489Z,2.05
2022-10-04T19:58:40.658Z,2.05
2022-10-04T20:03:42.978Z,2.65
2022-10-04T20:08:48.039Z,2.67
2022-10-04T20:14:17.953Z,2.22
2022-10-04T20:19:29.299Z,4.10
2022-10-04T20:24:37.513Z,3.63
2022-10-04T20:29:40.035Z,3.25
2022-10-04T20:34:50.152Z,3.17
2022-10-04T20:39:56.595Z,3.13
2022-10-04T20:45:04.477Z,4.40
2022-10-04T20:50:13.627Z,4.10
2022-10-04T20:56:09.354Z,5.32
2022-10-04T21:07:27.756Z,3.42
2022-10-04T21:12:40.143Z,2.78
2022-10-04T21:17:44.907Z,2.03
2022-10-04T21:22:51.039Z,2.17
2022-10-04T21:28:24.603Z,1.60
2022-10-04T21:33:27.469Z,1.35
2022-10-04T21:38:29.828Z,1.55
2022-10-04T21:43:32.532Z,1.30
2022-10-04T21:48:35.607Z,1.40
2022-10-04T21:53:38.193Z,1.20
2022-10-04T21:58:40.456Z,1.27
2022-10-04T22:03:43.435Z,1.10
2022-10-04T22:08:45.927Z,1.25
2022-10-04T22:13:49.930Z,1.40
2022-10-04T22:18:52.259Z,1.38
2022-10-04T22:23:54.821Z,1.10
2022-10-04T22:28:57.022Z,1.25
2022-10-04T22:33:59.492Z,1.13
2022-10-04T22:39:11.342Z,1.58
2022-10-04T22:44:20.150Z,2.30
2022-10-04T22:49:34.198Z,2.00
2022-10-04T22:54:44.002Z,2.38
2022-10-04T22:59:49.585Z,1.50
2022-10-04T23:04:56.045Z,1.85
2022-10-04T23:09:58.389Z,1.33
2022-10-04T23:15:02.107Z,1.30
2022-10-04T23:20:14.698Z,1.30
2022-10-04T23:25:26.860Z,1.58
2022-10-04T23:30:29.088Z,1.98
2022-10-04T23:35:34.532Z,2.15
2022-10-04T23:40:37.542Z,1.77
2022-10-04T23:45:42.337Z,1.60
2022-10-04T23:50:44.573Z,1.50
2022-10-04T23:55:47.065Z,1.38
